Time;durP1;ratioP1;P1;durP2;ratioP2;P2;SDS_P1;SDS_P2;PMS_P1;PMS_P2;Temp;Humidity;BMP_temperature;BMP_pressure;BME280_temperature;BME280_humidity;BME280_pressure;Samples;Min_cycle;Max_cycle;Signal;HPM_P1;HPM_P2
2022/05/23 00:01:13;;;;;;;1.88;1.40;;;16.50;61.50;;;;;;4987945;28;20043;-75
2022/05/23 00:03:38;;;;;;;2.83;1.40;;;16.50;61.70;;;;;;4993629;28;20037;-73
2022/05/23 00:06:05;;;;;;;4.85;1.25;;;16.50;61.90;;;;;;4984087;28;20042;-74
2022/05/23 00:08:31;;;;;;;6.55;1.80;;;16.40;61.90;;;;;;4985428;28;20034;-74
2022/05/23 00:10:57;;;;;;;4.63;1.20;;;16.30;61.90;;;;;;4988355;28;20125;-73
2022/05/23 00:13:23;;;;;;;2.95;1.50;;;16.30;62.00;;;;;;4987923;28;20514;-74
2022/05/23 00:15:48;;;;;;;0.95;0.90;;;16.30;62.10;;;;;;4983895;28;20030;-73
2022/05/23 00:18:14;;;;;;;2.42;1.50;;;16.20;62.40;;;;;;4975733;28;20125;-74
2022/05/23 00:20:39;;;;;;;4.90;1.73;;;16.20;62.50;;;;;;4999869;28;20034;-74
2022/05/23 00:23:05;;;;;;;3.28;1.58;;;16.10;62.40;;;;;;5002676;28;20427;-74
2022/05/23 00:25:30;;;;;;;4.03;1.30;;;16.10;62.60;;;;;;4987927;28;20461;-73
2022/05/23 00:27:56;;;;;;;3.03;1.60;;;16.00;62.60;;;;;;4996089;28;20639;-73
2022/05/23 00:30:23;;;;;;;4.15;1.60;;;16.00;62.80;;;;;;4969157;28;20037;-73
2022/05/23 00:35:33;;;;;;;3.60;1.58;;;15.90;62.90;;;;;;4992915;28;20128;-73
2022/05/23 00:37:59;;;;;;;2.38;1.45;;;15.90;63.00;;;;;;5000057;28;20085;-74
2022/05/23 00:40:30;;;;;;;2.88;1.80;;;15.80;63.10;;;;;;4972686;28;20034;-73
2022/05/23 00:43:15;;;;;;;2.25;1.55;;;15.80;63.30;;;;;;4974405;28;20066;-74
2022/05/23 00:45:49;;;;;;;1.77;1.60;;;15.70;63.40;;;;;;4977783;28;20053;-73
2022/05/23 00:48:15;;;;;;;1.90;1.50;;;15.70;63.50;;;;;;4975824;28;20026;-73
2022/05/23 00:50:42;;;;;;;1.70;1.60;;;15.60;63.40;;;;;;4972862;28;20030;-74
2022/05/23 00:53:08;;;;;;;2.47;1.70;;;15.60;63.60;;;;;;5002056;28;20662;-73
2022/05/23 00:55:48;;;;;;;2.50;1.77;;;15.60;63.70;;;;;;4989426;28;20043;-74
2022/05/23 00:58:22;;;;;;;7.72;1.70;;;15.50;64.10;;;;;;4982992;28;20077;-73
2022/05/23 01:00:48;;;;;;;2.88;1.50;;;15.40;64.00;;;;;;5000414;28;20133;-75
2022/05/23 01:03:15;;;;;;;4.75;2.05;;;15.40;63.90;;;;;;4993457;28;20499;-73
2022/05/23 01:05:41;;;;;;;3.08;1.85;;;15.40;64.00;;;;;;4983793;28;20755;-73
2022/05/23 01:08:06;;;;;;;4.18;2.80;;;15.30;64.00;;;;;;4999286;28;20105;-73
2022/05/23 01:10:33;;;;;;;4.35;2.03;;;15.30;64.10;;;;;;4987116;28;20513;-73
2022/05/23 01:12:58;;;;;;;2.67;2.17;;;15.30;64.30;;;;;;5005606;28;20050;-73
2022/05/23 01:15:26;;;;;;;3.55;2.10;;;15.20;64.40;;;;;;4983666;28;20038;-73
2022/05/23 01:17:52;;;;;;;4.28;2.40;;;15.20;64.40;;;;;;4963899;28;20605;-72
2022/05/23 01:20:17;;;;;;;3.67;2.40;;;15.10;64.40;;;;;;4929358;28;20046;-73
2022/05/23 01:23:04;;;;;;;3.03;2.10;;;15.10;64.70;;;;;;4973357;28;20058;-74
2022/05/23 01:25:31;;;;;;;3.67;2.15;;;15.10;65.00;;;;;;4988339;28;20061;-73
2022/05/23 01:27:56;;;;;;;5.10;2.38;;;15.00;64.80;;;;;;5001697;28;20522;-72
2022/05/23 01:30:22;;;;;;;2.30;2.08;;;15.00;64.90;;;;;;4977668;28;20113;-73
2022/05/23 01:32:48;;;;;;;2.83;2.20;;;15.00;65.00;;;;;;5003308;28;20133;-72
2022/05/23 01:35:13;;;;;;;2.60;2.30;;;14.90;65.00;;;;;;5002122;28;20054;-73
2022/05/23 01:37:39;;;;;;;4.35;2.60;;;14.90;65.20;;;;;;4971123;28;20597;-73
2022/05/23 01:40:06;;;;;;;2.72;2.20;;;14.90;65.20;;;;;;4965270;28;20069;-73
2022/05/23 01:42:32;;;;;;;2.75;2.15;;;14.80;65.30;;;;;;4975798;28;20046;-73
2022/05/23 01:44:57;;;;;;;2.95;1.92;;;14.80;65.30;;;;;;4957564;28;20088;-74
2022/05/23 01:47:23;;;;;;;4.15;2.13;;;14.80;65.50;;;;;;4968824;28;20061;-73
2022/05/23 01:49:49;;;;;;;3.40;1.88;;;14.80;65.60;;;;;;4974017;28;20034;-73
2022/05/23 01:52:14;;;;;;;2.50;2.30;;;14.70;65.70;;;;;;4985786;28;20040;-73
2022/05/23 01:54:40;;;;;;;2.53;2.30;;;14.70;65.70;;;;;;4978335;28;20038;-72
2022/05/23 01:57:07;;;;;;;2.80;2.30;;;14.70;65.70;;;;;;4963586;28;20612;-74
2022/05/23 02:02:17;;;;;;;3.60;2.47;;;14.60;66.00;;;;;;5002945;28;20037;-74
2022/05/23 02:04:42;;;;;;;4.00;2.47;;;14.60;66.10;;;;;;4961782;28;20034;-73
2022/05/23 02:07:08;;;;;;;2.92;2.30;;;14.60;66.30;;;;;;5002211;28;20057;-73
2022/05/23 02:09:34;;;;;;;4.00;2.50;;;14.50;66.20;;;;;;4970558;28;20091;-74
2022/05/23 02:11:59;;;;;;;3.47;2.40;;;14.50;66.30;;;;;;4992626;28;20030;-73
2022/05/23 02:14:25;;;;;;;2.97;2.25;;;14.50;66.60;;;;;;5000009;28;20375;-73
2022/05/23 02:16:51;;;;;;;3.80;2.60;;;14.40;66.40;;;;;;4996769;28;20069;-74
2022/05/23 02:19:16;;;;;;;4.55;2.42;;;14.40;66.40;;;;;;4980417;28;20037;-73
2022/05/23 02:21:42;;;;;;;4.68;2.58;;;14.40;66.60;;;;;;4973712;28;20527;-73
2022/05/23 02:24:07;;;;;;;3.78;2.60;;;14.40;66.70;;;;;;5005697;28;20049;-73
2022/05/23 02:26:33;;;;;;;3.95;2.70;;;14.30;66.70;;;;;;5002568;28;20054;-73
2022/05/23 02:28:58;;;;;;;2.78;2.47;;;14.30;66.70;;;;;;4992280;28;20026;-73
2022/05/23 02:31:25;;;;;;;5.78;2.92;;;14.20;66.80;;;;;;5003134;28;20038;-74
2022/05/23 02:33:50;;;;;;;5.55;2.90;;;14.20;67.00;;;;;;4986714;28;20194;-73
2022/05/23 02:36:16;;;;;;;7.13;3.42;;;14.20;67.00;;;;;;5003458;28;20113;-74
2022/05/23 02:38:41;;;;;;;2.88;2.40;;;14.20;67.10;;;;;;4987163;28;20490;-74
2022/05/23 02:41:07;;;;;;;3.45;2.30;;;14.10;67.20;;;;;;4996836;28;20034;-73
2022/05/23 02:43:33;;;;;;;3.30;2.58;;;14.10;67.30;;;;;;4994601;28;22766;-73
2022/05/23 02:45:59;;;;;;;5.68;2.95;;;14.10;67.40;;;;;;4984798;28;20530;-73
2022/05/23 02:48:24;;;;;;;6.43;3.03;;;14.00;67.40;;;;;;4979563;28;20561;-74
2022/05/23 02:50:50;;;;;;;5.28;2.95;;;14.00;67.50;;;;;;4944874;28;20061;-73
2022/05/23 02:53:15;;;;;;;3.10;2.80;;;14.00;67.60;;;;;;5003969;28;20048;-74
2022/05/23 02:55:41;;;;;;;5.93;2.83;;;14.00;68.20;;;;;;4973197;28;20030;-73
2022/05/23 02:58:07;;;;;;;4.47;2.78;;;13.90;67.60;;;;;;4990521;28;20022;-74
2022/05/23 03:00:33;;;;;;;4.90;2.75;;;13.90;67.80;;;;;;5001863;28;20398;-74
2022/05/23 03:03:02;;;;;;;6.55;2.65;;;13.90;67.90;;;;;;4979049;28;20093;-73
2022/05/23 03:05:37;;;;;;;4.60;2.90;;;13.90;67.90;;;;;;4974999;28;20068;-74
2022/05/23 03:08:03;;;;;;;3.58;2.80;;;13.80;68.20;;;;;;5000785;28;20047;-73
2022/05/23 03:10:29;;;;;;;3.00;2.70;;;13.80;68.80;;;;;;4960063;28;20042;-73
2022/05/23 03:12:54;;;;;;;6.53;2.95;;;13.80;68.10;;;;;;4973498;28;20026;-73
2022/05/23 03:15:20;;;;;;;4.35;2.90;;;13.80;68.20;;;;;;4988155;28;20121;-73
2022/05/23 03:17:46;;;;;;;5.53;2.88;;;13.80;68.30;;;;;;4990300;28;20017;-73
2022/05/23 03:20:11;;;;;;;4.88;3.15;;;13.80;68.50;;;;;;4989038;28;20406;-73
2022/05/23 03:28:10;;;;;;;3.92;2.72;;;13.70;68.60;;;;;;4972531;28;20722;-73
2022/05/23 03:30:35;;;;;;;6.28;2.78;;;13.70;68.60;;;;;;4974392;28;20078;-73
2022/05/23 03:33:01;;;;;;;4.28;3.28;;;13.70;68.70;;;;;;4990067;28;20030;-73
2022/05/23 03:35:27;;;;;;;4.70;2.90;;;13.70;68.90;;;;;;4985969;28;20041;-74
2022/05/23 03:37:53;;;;;;;4.78;3.10;;;13.60;68.80;;;;;;4990208;28;20110;-73
2022/05/23 03:40:19;;;;;;;7.18;3.60;;;13.60;68.90;;;;;;4987128;28;20690;-74
2022/05/23 03:42:44;;;;;;;6.60;3.33;;;13.60;69.00;;;;;;4969928;28;20065;-73
2022/05/23 03:45:10;;;;;;;4.60;3.35;;;13.60;69.00;;;;;;4989725;28;20026;-72
2022/05/23 03:47:36;;;;;;;6.22;3.63;;;13.60;69.10;;;;;;4973676;28;20109;-73
2022/05/23 03:50:01;;;;;;;4.85;3.58;;;13.60;69.30;;;;;;4972338;28;20479;-74
2022/05/23 03:52:27;;;;;;;5.80;3.10;;;13.60;69.30;;;;;;4980710;28;20038;-73
2022/05/23 03:54:52;;;;;;;4.60;2.90;;;13.60;69.50;;;;;;5005107;28;20034;-73
2022/05/23 03:57:18;;;;;;;4.50;3.15;;;13.60;69.50;;;;;;4979664;28;20313;-73
2022/05/23 03:59:45;;;;;;;4.72;3.00;;;13.60;69.50;;;;;;4968381;28;20034;-73
2022/05/23 04:02:11;;;;;;;6.00;3.15;;;13.60;69.60;;;;;;5003119;28;20049;-74
2022/05/23 04:04:36;;;;;;;4.55;3.15;;;13.60;69.60;;;;;;4961296;28;20042;-74
2022/05/23 04:07:04;;;;;;;5.78;3.60;;;13.50;69.60;;;;;;4966777;28;20086;-76
2022/05/23 04:09:30;;;;;;;3.80;3.25;;;13.50;69.70;;;;;;4982283;28;20069;-73
2022/05/23 04:11:56;;;;;;;6.10;3.30;;;13.50;69.70;;;;;;4997574;28;20499;-72
2022/05/23 04:14:22;;;;;;;4.38;3.38;;;13.50;69.90;;;;;;4981564;28;20034;-73
2022/05/23 04:16:48;;;;;;;6.57;3.47;;;13.50;69.90;;;;;;4972109;28;20034;-75
2022/05/23 04:19:14;;;;;;;3.92;3.13;;;13.50;70.00;;;;;;4944429;28;20442;-72
2022/05/23 04:21:41;;;;;;;4.28;3.15;;;13.50;70.00;;;;;;4950810;28;20523;-74
2022/05/23 04:24:07;;;;;;;4.97;3.70;;;13.50;70.20;;;;;;4993325;28;20041;-73
2022/05/23 04:26:33;;;;;;;5.70;3.42;;;13.50;70.20;;;;;;4981337;28;20038;-74
2022/05/23 04:28:58;;;;;;;4.82;2.85;;;13.60;70.40;;;;;;4976247;28;20494;-73
2022/05/23 04:31:24;;;;;;;5.68;3.90;;;13.60;70.40;;;;;;4952300;28;20034;-74
2022/05/23 04:36:34;;;;;;;6.70;3.58;;;13.60;70.60;;;;;;4994924;28;20148;-74
2022/05/23 04:38:59;;;;;;;5.47;3.28;;;13.60;70.60;;;;;;4993636;28;20101;-72
2022/05/23 04:41:25;;;;;;;4.95;3.80;;;13.60;70.70;;;;;;4964900;28;20060;-73
2022/05/23 04:43:50;;;;;;;4.43;3.55;;;13.60;70.80;;;;;;4962414;28;20860;-73
2022/05/23 04:46:16;;;;;;;4.10;3.33;;;13.60;71.20;;;;;;4970383;28;20057;-75
2022/05/23 04:51:26;;;;;;;4.03;3.30;;;13.70;71.20;;;;;;4997096;28;20053;-75
2022/05/23 04:53:55;;;;;;;4.18;3.55;;;13.70;71.10;;;;;;5010621;28;20045;-75
2022/05/23 04:56:21;;;;;;;3.78;3.35;;;13.70;71.10;;;;;;5006548;28;20050;-74
2022/05/23 04:58:47;;;;;;;5.35;3.72;;;13.70;71.10;;;;;;4987304;28;20045;-74
2022/05/23 05:01:12;;;;;;;5.53;3.42;;;13.80;71.20;;;;;;5001222;28;20065;-73
2022/05/23 05:03:38;;;;;;;5.60;3.65;;;13.80;71.30;;;;;;4947592;28;20099;-73
2022/05/23 05:06:04;;;;;;;6.45;3.55;;;13.80;71.40;;;;;;5004476;28;20069;-73
2022/05/23 05:08:29;;;;;;;4.05;3.45;;;13.80;71.50;;;;;;4984672;28;20033;-74
2022/05/23 05:10:57;;;;;;;4.07;3.58;;;13.80;71.50;;;;;;4983395;28;20596;-76
2022/05/23 05:13:23;;;;;;;5.38;3.65;;;13.80;71.50;;;;;;4981690;28;20050;-75
2022/05/23 05:15:49;;;;;;;4.38;3.25;;;13.90;71.70;;;;;;5010299;28;20037;-75
2022/05/23 05:18:15;;;;;;;5.80;3.45;;;13.90;71.80;;;;;;4981491;28;20038;-75
2022/05/23 05:20:40;;;;;;;4.57;3.50;;;13.90;71.70;;;;;;4995326;28;20086;-76
2022/05/23 05:23:06;;;;;;;7.05;3.70;;;14.00;71.90;;;;;;4985671;28;20112;-74
2022/05/23 05:25:31;;;;;;;5.10;3.17;;;14.00;72.10;;;;;;4991956;28;20039;-73
2022/05/23 05:27:57;;;;;;;3.90;3.50;;;14.00;72.00;;;;;;5002538;28;20048;-74
2022/05/23 05:30:23;;;;;;;4.47;3.17;;;14.00;72.10;;;;;;4980320;28;20041;-72
2022/05/23 05:33:05;;;;;;;5.60;3.92;;;14.10;72.20;;;;;;4988194;28;20038;-73
2022/05/23 05:35:51;;;;;;;4.57;3.10;;;14.10;72.40;;;;;;5001744;28;20064;-73
2022/05/23 05:38:20;;;;;;;5.20;3.47;;;14.20;72.50;;;;;;5004176;28;20037;-73
2022/05/23 05:40:49;;;;;;;4.13;3.45;;;14.20;72.10;;;;;;4980943;28;20034;-72
2022/05/23 05:43:19;;;;;;;5.35;3.35;;;14.30;72.20;;;;;;4968834;28;20495;-72
2022/05/23 05:45:58;;;;;;;7.90;3.60;;;14.30;72.20;;;;;;4983849;28;20073;-73
2022/05/23 05:48:23;;;;;;;4.00;3.20;;;14.40;72.50;;;;;;4985550;28;20195;-75
2022/05/23 05:50:49;;;;;;;4.00;3.10;;;14.50;72.00;;;;;;4987254;28;20159;-73
2022/05/23 05:53:28;;;;;;;5.78;3.50;;;14.60;72.10;;;;;;4970859;28;20042;-75
2022/05/23 05:55:53;;;;;;;5.43;3.05;;;14.60;72.00;;;;;;4974837;28;20105;-72
2022/05/23 05:58:19;;;;;;;4.97;3.88;;;14.60;71.60;;;;;;4971436;28;20125;-73
2022/05/23 06:00:44;;;;;;;5.15;4.53;;;14.70;71.60;;;;;;4984492;28;20034;-74
2022/05/23 06:03:10;;;;;;;7.65;3.80;;;14.80;71.60;;;;;;4955648;28;20605;-72
2022/05/23 06:11:23;;;;;;;7.38;3.55;;;14.80;71.50;;;;;;4989570;28;20034;-73
2022/05/23 06:13:50;;;;;;;6.93;4.40;;;14.90;71.30;;;;;;4984353;28;20087;-73
2022/05/23 06:16:16;;;;;;;5.15;3.75;;;14.90;71.30;;;;;;4971250;28;20049;-75
2022/05/23 06:18:42;;;;;;;4.20;3.35;;;14.90;71.20;;;;;;4990332;28;20039;-73
2022/05/23 06:21:09;;;;;;;5.30;3.45;;;15.00;71.20;;;;;;4972245;28;20091;-75
2022/05/23 06:23:36;;;;;;;5.05;3.60;;;15.00;71.00;;;;;;4998723;28;20045;-73
2022/05/23 06:26:01;;;;;;;5.45;3.40;;;15.00;70.90;;;;;;4969064;28;20038;-73
2022/05/23 06:28:27;;;;;;;4.63;3.53;;;15.00;70.80;;;;;;4966599;28;20080;-71
2022/05/23 06:30:52;;;;;;;4.20;2.85;;;15.00;70.60;;;;;;4985088;28;20022;-72
2022/05/23 06:33:18;;;;;;;6.10;3.58;;;15.10;70.50;;;;;;4985963;28;20199;-73
2022/05/23 06:35:44;;;;;;;4.45;3.33;;;15.10;70.40;;;;;;4996391;28;20061;-72
2022/05/23 06:38:09;;;;;;;9.88;4.03;;;15.10;70.40;;;;;;4955417;28;20422;-72
2022/05/23 06:40:35;;;;;;;6.90;4.28;;;15.20;70.50;;;;;;4983436;28;20187;-71
2022/05/23 06:43:01;;;;;;;4.65;3.83;;;15.20;70.70;;;;;;5006149;28;20034;-74
2022/05/23 06:45:27;;;;;;;8.70;3.80;;;15.20;70.80;;;;;;5001952;28;20042;-73
2022/05/23 06:47:52;;;;;;;6.30;3.80;;;15.20;70.90;;;;;;4970169;28;20055;-73
2022/05/23 06:50:18;;;;;;;5.53;3.50;;;15.10;71.10;;;;;;4982718;28;20094;-73
2022/05/23 06:52:43;;;;;;;4.47;3.47;;;15.10;71.30;;;;;;4981276;28;20057;-74
2022/05/23 06:55:09;;;;;;;5.55;3.72;;;15.10;71.40;;;;;;4996252;28;20080;-73
2022/05/23 06:57:35;;;;;;;5.68;4.10;;;15.10;71.50;;;;;;4956908;28;20038;-74
2022/05/23 07:00:00;;;;;;;7.35;3.83;;;15.10;71.50;;;;;;4983726;28;20027;-73
2022/05/23 07:02:26;;;;;;;7.00;3.40;;;15.20;71.70;;;;;;4975239;28;20068;-73
2022/05/23 07:13:04;;;;;;;4.28;3.83;;;15.40;72.00;;;;;;4985232;28;20422;-74
2022/05/23 07:15:35;;;;;;;5.72;3.47;;;15.50;72.00;;;;;;4997521;28;20659;-72
2022/05/23 07:18:02;;;;;;;3.57;3.03;;;15.60;72.10;;;;;;4968383;28;20511;-73
2022/05/23 07:20:28;;;;;;;5.28;3.13;;;15.70;72.10;;;;;;4975332;28;20359;-72
2022/05/23 07:22:53;;;;;;;5.70;3.95;;;15.80;72.10;;;;;;4979437;28;20120;-73
2022/05/23 07:25:19;;;;;;;6.57;3.30;;;15.90;72.20;;;;;;4990002;28;20775;-73
2022/05/23 07:27:44;;;;;;;5.63;3.25;;;16.00;72.00;;;;;;4951595;28;20037;-72
2022/05/23 07:30:10;;;;;;;6.95;3.35;;;16.10;71.90;;;;;;4998971;28;20502;-73
2022/05/23 07:32:36;;;;;;;4.00;3.25;;;16.20;72.00;;;;;;4999103;28;20037;-74
2022/05/23 07:35:02;;;;;;;4.90;3.03;;;16.30;72.00;;;;;;4970388;28;20125;-73
2022/05/23 07:37:28;;;;;;;3.33;3.03;;;16.40;71.80;;;;;;4965710;28;20075;-74
2022/05/23 07:39:56;;;;;;;5.93;3.65;;;16.50;71.70;;;;;;4985234;28;20054;-74
2022/05/23 07:42:22;;;;;;;7.65;3.65;;;16.60;71.90;;;;;;4995391;28;20045;-73
2022/05/23 07:44:48;;;;;;;3.95;3.10;;;16.80;71.70;;;;;;4982154;28;20034;-74
2022/05/23 07:47:13;;;;;;;5.47;3.10;;;16.90;71.50;;;;;;4981482;28;20038;-73
2022/05/23 07:49:39;;;;;;;3.63;3.00;;;17.00;71.30;;;;;;4996529;28;20187;-74
2022/05/23 07:52:04;;;;;;;3.95;3.03;;;17.10;71.30;;;;;;4996520;28;20153;-73
2022/05/23 08:02:43;;;;;;;4.88;3.20;;;17.80;70.80;;;;;;4999672;28;20067;-74
2022/05/23 08:05:08;;;;;;;4.93;3.78;;;18.10;70.50;;;;;;4971160;28;20073;-74
2022/05/23 08:07:34;;;;;;;4.38;3.00;;;18.30;70.10;;;;;;4998071;28;20592;-74
2022/05/23 08:10:00;;;;;;;5.60;3.22;;;18.40;69.70;;;;;;4995714;28;20581;-73
2022/05/23 08:12:29;;;;;;;4.97;3.05;;;18.60;69.30;;;;;;4998623;28;20160;-74
2022/05/23 08:14:54;;;;;;;6.45;3.10;;;18.80;69.00;;;;;;4969917;28;20045;-73
2022/05/23 08:17:20;;;;;;;5.63;3.15;;;19.10;68.80;;;;;;4965865;28;20150;-73
2022/05/23 08:19:45;;;;;;;4.10;2.70;;;19.30;68.50;;;;;;4982448;28;20034;-73
2022/05/23 08:22:11;;;;;;;5.03;2.88;;;19.50;68.00;;;;;;4995208;28;20053;-74
2022/05/23 08:24:37;;;;;;;4.35;2.90;;;19.70;67.60;;;;;;4996752;28;20034;-73
2022/05/23 08:27:02;;;;;;;4.18;2.90;;;19.90;67.10;;;;;;4972906;28;20045;-73
2022/05/23 08:29:29;;;;;;;6.35;2.83;;;20.10;66.70;;;;;;4979171;28;20034;-72
2022/05/23 08:31:54;;;;;;;4.28;2.78;;;20.30;66.40;;;;;;4989496;28;20027;-73
2022/05/23 08:34:20;;;;;;;3.85;2.58;;;20.50;66.10;;;;;;4957837;28;20084;-73
2022/05/23 08:36:46;;;;;;;5.15;2.35;;;20.70;65.60;;;;;;4996949;28;20136;-74
2022/05/23 08:39:11;;;;;;;4.43;2.50;;;20.90;65.30;;;;;;4998818;28;20047;-75
2022/05/23 08:41:41;;;;;;;2.75;2.22;;;21.10;64.80;;;;;;4973543;28;20061;-73
2022/05/23 08:44:17;;;;;;;6.68;2.90;;;21.40;64.50;;;;;;4958004;28;20135;-73
2022/05/23 08:46:43;;;;;;;4.05;2.20;;;21.60;63.90;;;;;;4972085;28;20041;-74
2022/05/23 08:49:39;;;;;;;24.05;6.93;;;21.80;63.30;;;;;;4990969;28;20443;-73
2022/05/23 08:52:20;;;;;;;111.25;36.88;;;22.00;62.80;;;;;;4999474;28;20073;-73
2022/05/23 08:55:09;;;;;;;58.58;22.40;;;22.20;62.30;;;;;;4979081;28;20090;-75
2022/05/23 08:57:48;;;;;;;20.48;6.30;;;22.40;62.00;;;;;;4995101;28;20478;-73
2022/05/23 09:00:15;;;;;;;8.70;3.83;;;22.60;61.60;;;;;;4992608;28;20038;-73
2022/05/23 09:02:42;;;;;;;3.47;2.17;;;22.70;61.20;;;;;;4971486;28;20049;-73
2022/05/23 09:05:12;;;;;;;10.70;3.15;;;22.90;60.80;;;;;;4979599;28;20053;-73
2022/05/23 09:07:48;;;;;;;6.53;2.22;;;23.10;60.50;;;;;;4992706;28;20660;-74
2022/05/23 09:10:22;;;;;;;4.53;2.00;;;23.30;59.90;;;;;;4983669;28;20122;-73
2022/05/23 09:12:50;;;;;;;2.70;1.77;;;23.50;59.80;;;;;;4954306;28;20060;-74
2022/05/23 09:15:16;;;;;;;4.30;2.10;;;23.60;59.40;;;;;;4958743;28;20042;-73
2022/05/23 09:17:44;;;;;;;3.13;1.88;;;23.80;59.00;;;;;;4982694;28;20049;-73
2022/05/23 09:20:12;;;;;;;3.03;1.92;;;23.80;58.60;;;;;;4960284;28;20082;-73
2022/05/23 09:22:43;;;;;;;2.92;1.80;;;23.90;58.30;;;;;;4991605;28;20069;-74
2022/05/23 09:25:10;;;;;;;2.38;1.70;;;24.00;58.10;;;;;;4983037;28;20659;-74
2022/05/23 09:27:36;;;;;;;2.58;1.75;;;24.10;57.90;;;;;;4958155;28;20057;-73
2022/05/23 09:30:04;;;;;;;3.78;2.28;;;24.20;57.70;;;;;;4979265;28;20034;-73
2022/05/23 09:32:40;;;;;;;2.50;1.30;;;24.40;57.20;;;;;;4969409;28;20068;-73
2022/05/23 09:35:27;;;;;;;2.03;1.40;;;24.50;56.60;;;;;;4974931;28;20062;-74
2022/05/23 09:38:16;;;;;;;2.85;1.67;;;24.70;56.40;;;;;;4986551;28;20635;-76
2022/05/23 09:40:42;;;;;;;3.95;1.92;;;24.90;56.00;;;;;;4985688;28;20042;-76
2022/05/23 09:49:12;;;;;;;1.55;1.27;;;25.50;55.10;;;;;;4998897;28;21472;-73
2022/05/23 09:51:51;;;;;;;2.83;1.45;;;25.60;54.50;;;;;;4997921;28;20049;-75
2022/05/23 09:54:26;;;;;;;2.72;1.45;;;25.90;54.30;;;;;;4987209;28;20686;-76
2022/05/23 09:56:52;;;;;;;2.78;1.40;;;26.10;54.30;;;;;;4982432;28;20128;-73
2022/05/23 09:59:26;;;;;;;2.05;1.42;;;26.30;53.90;;;;;;4969557;28;20585;-74
2022/05/23 10:01:53;;;;;;;3.95;1.52;;;26.50;53.40;;;;;;4967856;28;20046;-74
2022/05/23 10:04:26;;;;;;;4.38;1.70;;;26.70;53.20;;;;;;4982972;28;20045;-74
2022/05/23 10:06:51;;;;;;;5.15;1.42;;;26.80;53.30;;;;;;4982511;28;20084;-74
2022/05/23 10:09:26;;;;;;;3.03;1.85;;;26.90;52.60;;;;;;4985348;28;20045;-74
2022/05/23 10:11:59;;;;;;;2.35;1.50;;;27.10;51.80;;;;;;4988528;28;20125;-74
2022/05/23 10:14:26;;;;;;;2.33;1.20;;;27.10;51.40;;;;;;4978912;28;20034;-75
2022/05/23 10:16:55;;;;;;;2.15;1.27;;;27.20;51.30;;;;;;4953001;28;20026;-74
2022/05/23 10:19:31;;;;;;;1.92;1.13;;;27.30;51.10;;;;;;4986294;28;20038;-74
2022/05/23 10:22:22;;;;;;;2.78;1.73;;;27.50;50.50;;;;;;4985184;28;20034;-74
2022/05/23 10:25:05;;;;;;;2.85;1.23;;;27.80;50.20;;;;;;4999770;28;20057;-74
2022/05/23 10:27:36;;;;;;;2.30;1.45;;;27.90;50.20;;;;;;4979810;28;20639;-75
2022/05/23 10:30:05;;;;;;;1.65;1.55;;;28.00;49.80;;;;;;4980346;28;20299;-74
2022/05/23 10:32:51;;;;;;;2.78;1.63;;;28.00;49.70;;;;;;4949396;28;20520;-75
2022/05/23 10:35:22;;;;;;;2.00;1.80;;;28.20;49.80;;;;;;4995752;28;20037;-74
2022/05/23 10:37:49;;;;;;;1.60;1.50;;;28.40;49.40;;;;;;4973219;28;20045;-74
2022/05/23 10:43:19;;;;;;;2.25;1.40;;;28.80;48.70;;;;;;4974622;28;20085;-74
2022/05/23 10:45:47;;;;;;;2.45;1.60;;;29.10;47.90;;;;;;4963378;28;20045;-74
2022/05/23 10:48:22;;;;;;;3.58;1.77;;;29.20;48.20;;;;;;4970118;28;20034;-75
2022/05/23 10:51:07;;;;;;;2.30;1.45;;;29.50;47.40;;;;;;4981415;28;20514;-74
2022/05/23 10:53:57;;;;;;;4.28;1.50;;;29.60;46.90;;;;;;4994943;28;20101;-75
2022/05/23 10:56:35;;;;;;;2.97;1.70;;;29.70;47.10;;;;;;4977449;28;20109;-74
2022/05/23 10:59:17;;;;;;;2.13;1.10;;;29.90;47.10;;;;;;4993896;28;20042;-74
2022/05/23 11:01:45;;;;;;;1.67;0.93;;;30.10;46.60;;;;;;4986542;28;20145;-74
2022/05/23 11:04:49;;;;;;;4.78;1.35;;;30.40;46.60;;;;;;4987968;28;20050;-77
2022/05/23 11:07:23;;;;;;;3.83;1.60;;;30.60;45.50;;;;;;4990460;28;20041;-75
2022/05/23 11:10:14;;;;;;;1.45;1.08;;;30.80;45.90;;;;;;4996471;28;20062;-74
2022/05/23 11:12:40;;;;;;;;;;;31.10;45.00;;;;;;4995477;28;20073;-74
2022/05/23 11:15:05;;;;;;;2.75;1.40;;;31.40;45.60;;;;;;4996272;28;19925;-74
2022/05/23 11:17:37;;;;;;;3.90;1.15;;;31.50;45.30;;;;;;4984869;28;20561;-74
2022/05/23 11:20:16;;;;;;;4.03;1.10;;;31.50;44.80;;;;;;4968540;28;20129;-75
2022/05/23 11:22:47;;;;;;;4.13;1.30;;;31.60;43.50;;;;;;4978657;28;20040;-75
2022/05/23 11:25:24;;;;;;;2.55;1.20;;;31.70;43.90;;;;;;4968342;28;20026;-75
2022/05/23 11:34:05;;;;;;;1.50;1.40;;;32.30;43.30;;;;;;4987448;28;20435;-74
2022/05/23 11:36:44;;;;;;;3.10;1.13;;;32.50;43.10;;;;;;4967459;28;20100;-76
2022/05/23 11:39:46;;;;;;;5.53;1.85;;;32.50;42.80;;;;;;4987805;28;20030;-74
2022/05/23 11:42:50;;;;;;;2.20;1.05;;;32.70;41.70;;;;;;4975429;28;20049;-75
2022/05/23 11:48:41;;;;;;;12.55;3.03;;;32.80;41.60;;;;;;4963304;28;20062;-76
2022/05/23 11:51:12;;;;;;;2.17;1.70;;;32.90;41.40;;;;;;4994785;28;20026;-74
2022/05/23 11:54:06;;;;;;;2.83;1.05;;;33.00;42.00;;;;;;4982136;28;20029;-76
2022/05/23 11:56:43;;;;;;;1.38;1.00;;;33.10;41.50;;;;;;4982175;28;20041;-74
2022/05/23 11:59:30;;;;;;;4.00;1.15;;;33.10;41.30;;;;;;4986596;28;20033;-75
2022/05/23 12:02:08;;;;;;;3.63;1.25;;;33.20;41.40;;;;;;4962731;28;20041;-75
2022/05/23 12:04:56;;;;;;;3.97;1.50;;;33.10;40.60;;;;;;4996528;28;20129;-74
2022/05/23 12:07:31;;;;;;;3.28;0.93;;;33.00;40.30;;;;;;4972871;28;20056;-74
2022/05/23 12:10:15;;;;;;;3.17;1.27;;;33.00;40.80;;;;;;4998492;28;20027;-74
2022/05/23 12:12:51;;;;;;;3.90;1.35;;;33.00;41.00;;;;;;4978230;28;20490;-75
2022/05/23 12:15:42;;;;;;;10.32;2.40;;;32.90;40.80;;;;;;4978655;28;20507;-75
2022/05/23 12:18:08;;;;;;;2.60;1.10;;;32.80;40.20;;;;;;4985351;28;20042;-75
2022/05/23 12:21:02;;;;;;;5.45;1.95;;;32.80;40.80;;;;;;4963709;28;20135;-74
2022/05/23 12:23:39;;;;;;;4.82;1.35;;;32.80;40.70;;;;;;4995548;28;20034;-75
2022/05/23 12:26:18;;;;;;;3.13;1.25;;;32.70;40.60;;;;;;4983129;28;20110;-74
2022/05/23 12:28:56;;;;;;;3.63;1.40;;;32.60;40.60;;;;;;4977588;28;20054;-74
2022/05/23 12:31:28;;;;;;;3.63;1.00;;;32.60;41.00;;;;;;4999627;28;20045;-74
2022/05/23 12:34:14;;;;;;;3.20;1.42;;;32.50;40.90;;;;;;4941326;28;20058;-75
2022/05/23 12:36:50;;;;;;;4.28;1.70;;;32.50;40.60;;;;;;4981749;28;20137;-77
2022/05/23 12:39:31;;;;;;;4.05;1.17;;;32.40;40.50;;;;;;4974498;28;20100;-75
2022/05/23 12:42:24;;;;;;;3.50;1.13;;;32.40;40.50;;;;;;4972839;28;20119;-75
2022/05/23 12:45:15;;;;;;;6.05;1.60;;;32.30;40.60;;;;;;4996801;28;20035;-75
2022/05/23 12:47:55;;;;;;;5.00;1.60;;;32.20;40.80;;;;;;4988354;28;20042;-74
2022/05/23 12:50:45;;;;;;;2.85;1.48;;;32.10;40.90;;;;;;4983563;28;20104;-74
2022/05/23 12:53:46;;;;;;;3.75;1.00;;;32.00;40.80;;;;;;4997824;28;20627;-75
2022/05/23 12:56:36;;;;;;;1.85;1.40;;;32.00;41.00;;;;;;4978527;28;20053;-74
2022/05/23 12:59:14;;;;;;;3.63;1.23;;;32.00;41.20;;;;;;4988853;28;20034;-74
2022/05/23 13:01:43;;;;;;;4.95;1.38;;;31.90;41.40;;;;;;4968419;28;20042;-75
2022/05/23 13:04:41;;;;;;;4.80;1.70;;;31.80;41.50;;;;;;4969550;28;20071;-74
2022/05/23 13:07:26;;;;;;;2.33;1.77;;;31.70;41.40;;;;;;4959644;28;20038;-75
2022/05/23 13:10:05;;;;;;;3.13;1.73;;;31.50;41.50;;;;;;4992727;28;20042;-74
2022/05/23 13:12:37;;;;;;;2.80;1.83;;;31.40;41.60;;;;;;4981390;28;20030;-75
2022/05/23 13:15:03;;;;;;;6.32;1.55;;;31.10;41.90;;;;;;4969064;28;20042;-74
2022/05/23 13:17:39;;;;;;;3.58;1.83;;;30.90;42.20;;;;;;4967410;28;20041;-76
2022/05/23 13:23:17;;;;;;;2.05;1.60;;;30.50;42.60;;;;;;4983092;28;20057;-73
2022/05/23 13:25:43;;;;;;;3.67;1.42;;;30.40;42.90;;;;;;4973194;28;20104;-73
2022/05/23 13:28:09;;;;;;;3.42;1.70;;;30.30;43.10;;;;;;4965237;28;20050;-75
2022/05/23 13:30:37;;;;;;;3.25;1.88;;;30.20;43.20;;;;;;4983294;28;20053;-74
2022/05/23 13:33:15;;;;;;;2.30;1.80;;;30.10;43.40;;;;;;4971448;28;20085;-73
2022/05/23 13:35:53;;;;;;;6.63;1.60;;;29.90;43.60;;;;;;4982802;28;20037;-74
2022/05/23 13:38:21;;;;;;;3.58;1.88;;;29.80;43.70;;;;;;4996375;28;20038;-74
2022/05/23 13:40:52;;;;;;;3.33;1.70;;;29.80;43.90;;;;;;4979514;28;20034;-74
2022/05/23 13:43:24;;;;;;;2.20;1.63;;;29.70;43.90;;;;;;4980298;28;20100;-73
2022/05/23 13:46:07;;;;;;;6.82;1.85;;;29.60;44.00;;;;;;4984364;28;20410;-74
2022/05/23 13:48:39;;;;;;;3.55;1.70;;;29.50;44.20;;;;;;4974099;28;20022;-74
2022/05/23 13:51:09;;;;;;;3.05;2.10;;;29.40;44.40;;;;;;4980581;28;20515;-73
2022/05/23 13:53:46;;;;;;;3.72;2.10;;;29.30;44.60;;;;;;4960927;28;20635;-74
2022/05/23 13:56:13;;;;;;;4.03;1.65;;;29.20;44.90;;;;;;4967553;28;20514;-73
2022/05/23 13:58:50;;;;;;;3.85;1.70;;;29.20;44.90;;;;;;4972129;28;20100;-73
2022/05/23 14:01:19;;;;;;;4.70;1.98;;;29.10;45.10;;;;;;4952440;28;20041;-73
2022/05/23 14:04:00;;;;;;;3.35;1.77;;;29.10;45.10;;;;;;4957687;28;20029;-73